航空気象通報

ウインドサーファーのための航空気象通報による風予報です。

11/13-11/15の航空気象通報

2018年11月13日 23時26分55秒 | お天気

羽田空港
TAF RJTT 131105Z 1312/1418 02016KT 8000 FEW008 BKN015
日本時間13日21時-15日03時:020度から16ノットの風


静岡空港
TAF RJNS 131106Z 1312/1418 36004KT 9999 FEW015 BKN030
BECMG 1403/1406 16008KT
BECMG 1412/1415 36004KT
日本時間13日21時-14日12時:360度から4ノットの風
12-15時:風が変化
15-21時:340度から4ノットの風
21-24時:風が変化
15日00-03時:360度から4ノットの風


福岡空港
TAF RJFF 131108Z 1312/1418 03005KT 9999 FEW030
BECMG 1312/1314 14004KT
BECMG 1403/1406 36010KT
BECMG 1412/1415 14003KT
日本時間13日21時:030度から5ノットの風
21-23時:風が変化
23時-14日12時:140度から4ノットの風
12-15時:風が変化
15-21時:360度から10ノットの風
21-24時:風が変化
15日00-03時:140度から3ノットの風


那覇空港
TAF ROAH 131106Z 1312/1418 35011KT 9999 FEW030
日本時間13日21時-15日03時:350度から11ノットの風


石垣空港
TAF ROIG 131108Z 1312/1418 03016KT 9999 FEW020 BKN045
日本時間13日21時-15日03時:030度から16ノットの風


マウイのカフルイ空港
PHOG 131122Z 1312/1412 06008KT P6SM FEW035
FM132100 04014G20KT P6SM FEW035
FM140600 04008KT P6SM FEW035 AMD LTD TO VIS AND WIND TIL 131600
ハワイ時間13日02-11時:060度から8ノットの風
11-20時:040度から14ノット、突風20ノット
20時-14日02時:040度から8ノットの風


サイパン空港
PGSN 131134Z 1312/1412 06008KT P6SM FEW025
マリアナ時間13日22時-14日22時:060度から8ノットの風
ジャンル:
お天気
コメント   この記事についてブログを書く
« 11/12-11/14の航空気象通報 | トップ | 11/16-11/18の航空気象通報 »
最近の画像もっと見る

コメントを投稿

ブログ作成者から承認されるまでコメントは反映されません。

お天気」カテゴリの最新記事